Time;durP1;ratioP1;P1;durP2;ratioP2;P2;SDS_P1;SDS_P2;PMS_P1;PMS_P2;Temp;Humidity;BMP_temperature;BMP_pressure;BME280_temperature;BME280_humidity;BME280_pressure;Samples;Min_cycle;Max_cycle;Signal;HPM_P1;HPM_P2
2021/09/01 00:02:23;;;;;;;14.30;11.98;;;11.90;99.90;;;;;;5051078;28;20677;-69
2021/09/01 00:04:49;;;;;;;16.30;11.93;;;11.80;99.90;;;;;;5051088;28;20056;-69
2021/09/01 00:07:16;;;;;;;17.92;13.07;;;11.80;99.90;;;;;;5049578;28;20462;-69
2021/09/01 00:09:42;;;;;;;14.18;12.35;;;11.80;99.90;;;;;;5050813;28;20033;-69
2021/09/01 00:12:08;;;;;;;14.30;11.52;;;11.80;99.90;;;;;;5050035;28;20035;-69
2021/09/01 00:14:34;;;;;;;15.93;13.85;;;11.70;99.90;;;;;;5054331;28;20497;-69
2021/09/01 00:17:00;;;;;;;18.20;12.63;;;11.20;99.90;;;;;;5054650;28;20132;-70
2021/09/01 00:19:26;;;;;;;14.77;12.25;;;11.70;99.90;;;;;;5053399;28;20115;-70
2021/09/01 00:21:52;;;;;;;17.27;13.70;;;11.70;99.90;;;;;;5054502;28;20417;-70
2021/09/01 00:24:17;;;;;;;17.02;13.40;;;11.60;99.90;;;;;;5053771;28;20025;-69
2021/09/01 00:26:44;;;;;;;19.00;14.18;;;11.70;99.90;;;;;;5054023;28;20123;-69
2021/09/01 00:29:10;;;;;;;19.88;14.45;;;11.60;99.90;;;;;;5052263;28;20494;-69
2021/09/01 00:31:36;;;;;;;20.17;14.30;;;11.60;99.90;;;;;;5054195;28;20041;-69
2021/09/01 00:34:02;;;;;;;18.50;14.18;;;11.60;99.90;;;;;;5047162;28;20082;-69
2021/09/01 00:36:27;;;;;;;17.08;13.70;;;11.60;99.90;;;;;;5053524;28;20033;-69
2021/09/01 00:38:53;;;;;;;20.80;14.40;;;11.60;99.90;;;;;;5053763;28;20082;-69
2021/09/01 00:41:27;;;;;;;18.70;14.43;;;11.60;99.90;;;;;;5052945;28;20049;-69
2021/09/01 00:43:54;;;;;;;17.70;14.70;;;11.60;99.90;;;;;;5053710;28;20060;-70
2021/09/01 00:46:22;;;;;;;21.05;15.60;;;11.60;99.90;;;;;;5053300;28;20025;-69
2021/09/01 00:48:50;;;;;;;19.95;14.35;;;11.50;99.90;;;;;;5053579;28;20060;-70
2021/09/01 00:51:16;;;;;;;20.65;14.60;;;11.50;99.90;;;;;;5052723;28;20028;-69
2021/09/01 00:53:45;;;;;;;18.77;13.93;;;11.50;99.90;;;;;;5051440;28;20120;-69
2021/09/01 00:56:21;;;;;;;19.58;15.07;;;11.40;99.90;;;;;;5053008;28;20090;-69
2021/09/01 00:58:47;;;;;;;19.20;14.00;;;11.30;99.90;;;;;;5046829;28;20382;-69
2021/09/01 01:01:16;;;;;;;17.17;13.52;;;11.20;99.90;;;;;;5052961;28;20092;-69
2021/09/01 01:03:46;;;;;;;19.30;13.52;;;11.20;99.90;;;;;;5053404;28;20493;-69
2021/09/01 01:06:12;;;;;;;17.63;13.40;;;11.20;99.90;;;;;;5051735;28;20104;-69
2021/09/01 01:08:38;;;;;;;16.48;13.52;;;11.10;99.90;;;;;;5053380;28;20029;-69
2021/09/01 01:11:11;;;;;;;18.23;14.00;;;11.10;99.90;;;;;;5053369;28;20072;-70
2021/09/01 01:13:37;;;;;;;18.20;14.38;;;11.00;99.90;;;;;;5053805;28;20034;-69
2021/09/01 01:16:03;;;;;;;18.13;14.10;;;11.00;99.90;;;;;;5052949;28;20485;-69
2021/09/01 01:18:29;;;;;;;16.23;13.30;;;11.00;99.90;;;;;;5052828;28;20040;-69
2021/09/01 01:20:55;;;;;;;16.83;13.60;;;11.00;99.90;;;;;;5053468;28;20467;-69
2021/09/01 01:23:22;;;;;;;24.50;17.23;;;11.00;99.90;;;;;;5052040;28;20033;-69
2021/09/01 01:25:48;;;;;;;24.17;16.02;;;11.00;99.90;;;;;;5053148;28;20391;-69
2021/09/01 01:28:14;;;;;;;23.63;16.15;;;11.00;99.90;;;;;;5051214;28;20024;-68
2021/09/01 01:30:40;;;;;;;22.60;16.00;;;11.00;99.90;;;;;;5052883;28;20041;-69
2021/09/01 01:33:06;;;;;;;23.67;16.05;;;11.00;99.90;;;;;;5052414;28;20067;-69
2021/09/01 01:35:43;;;;;;;27.42;17.23;;;11.00;99.90;;;;;;5053429;28;20033;-69
2021/09/01 01:38:11;;;;;;;25.17;16.45;;;11.00;99.90;;;;;;5052249;28;20459;-69
2021/09/01 01:40:38;;;;;;;23.08;16.63;;;11.00;99.90;;;;;;5053162;28;20048;-69
2021/09/01 01:43:04;;;;;;;26.17;17.58;;;11.00;99.90;;;;;;5052941;28;20052;-69
2021/09/01 01:45:32;;;;;;;21.88;16.55;;;11.00;99.90;;;;;;5052005;28;20033;-69
2021/09/01 01:47:59;;;;;;;22.52;16.17;;;10.90;99.90;;;;;;5053019;28;20105;-69
2021/09/01 01:50:25;;;;;;;21.33;16.30;;;10.90;99.90;;;;;;5052033;28;20033;-69
2021/09/01 01:52:50;;;;;;;22.60;15.90;;;10.90;99.90;;;;;;5052671;28;20544;-69
2021/09/01 01:55:16;;;;;;;20.92;15.38;;;10.90;99.90;;;;;;5052103;28;20032;-69
2021/09/01 01:57:42;;;;;;;23.05;16.67;;;10.90;99.90;;;;;;5052261;28;20052;-69
2021/09/01 02:00:08;;;;;;;24.63;17.42;;;10.80;99.90;;;;;;5051936;28;20029;-68
2021/09/01 02:02:34;;;;;;;26.80;17.15;;;10.80;99.90;;;;;;5052335;28;20029;-69
2021/09/01 02:05:01;;;;;;;28.08;18.02;;;10.80;99.90;;;;;;5052361;28;20436;-69
2021/09/01 02:07:28;;;;;;;26.40;16.40;;;10.80;99.90;;;;;;5051643;28;20044;-70
2021/09/01 02:09:54;;;;;;;21.75;16.17;;;10.80;99.90;;;;;;5052343;28;20386;-69
2021/09/01 02:12:20;;;;;;;22.63;17.02;;;10.70;99.90;;;;;;5051323;28;20037;-69
2021/09/01 02:14:46;;;;;;;26.27;17.85;;;10.70;99.90;;;;;;5052207;28;20029;-69
2021/09/01 02:17:12;;;;;;;25.23;17.27;;;10.70;99.90;;;;;;5051210;28;20036;-69
2021/09/01 02:19:38;;;;;;;29.23;18.60;;;10.70;99.90;;;;;;5052537;28;20032;-69
2021/09/01 02:22:04;;;;;;;26.20;18.52;;;10.70;99.90;;;;;;5052443;28;20043;-68
2021/09/01 02:24:29;;;;;;;29.42;18.38;;;10.60;99.90;;;;;;5050793;28;20103;-69
2021/09/01 02:26:55;;;;;;;29.20;18.27;;;10.70;99.90;;;;;;5052137;28;20100;-69
2021/09/01 02:29:21;;;;;;;29.67;20.02;;;10.60;99.90;;;;;;5050754;28;20075;-69
2021/09/01 02:31:47;;;;;;;32.20;19.58;;;10.60;99.90;;;;;;5051676;28;20033;-69
2021/09/01 02:34:12;;;;;;;29.52;19.88;;;10.60;99.90;;;;;;5051460;28;20028;-69
2021/09/01 02:36:38;;;;;;;30.55;20.73;;;10.60;99.90;;;;;;5051280;28;20040;-69
2021/09/01 02:39:04;;;;;;;37.40;22.02;;;10.70;99.90;;;;;;5051209;28;20032;-69
2021/09/01 02:41:30;;;;;;;38.67;22.35;;;10.70;99.90;;;;;;5050785;28;20065;-69
2021/09/01 02:43:56;;;;;;;40.08;21.95;;;10.70;99.90;;;;;;5052058;28;20454;-69
2021/09/01 02:46:22;;;;;;;36.42;21.17;;;10.70;99.90;;;;;;5050626;28;20021;-69
2021/09/01 02:48:47;;;;;;;32.67;20.45;;;10.70;99.90;;;;;;5051805;28;20100;-69
2021/09/01 02:51:13;;;;;;;31.67;20.48;;;10.70;99.90;;;;;;5051030;28;20029;-69
2021/09/01 02:53:39;;;;;;;29.42;18.15;;;10.70;99.90;;;;;;5051316;28;20047;-68
2021/09/01 02:56:05;;;;;;;31.20;18.30;;;10.60;99.90;;;;;;5051800;28;20041;-69
2021/09/01 02:58:30;;;;;;;35.47;20.80;;;10.50;99.90;;;;;;5050925;28;20036;-69
2021/09/01 03:00:56;;;;;;;33.05;19.50;;;10.50;99.90;;;;;;5051324;28;20133;-69
2021/09/01 03:03:22;;;;;;;33.15;19.95;;;10.50;99.90;;;;;;5050356;28;20215;-69
2021/09/01 03:05:47;;;;;;;34.80;20.85;;;10.50;99.90;;;;;;5051450;28;20108;-69
2021/09/01 03:08:13;;;;;;;35.97;22.70;;;10.40;99.90;;;;;;5049413;28;20021;-69
2021/09/01 03:10:39;;;;;;;35.47;21.40;;;10.40;99.90;;;;;;5049989;28;20490;-69
2021/09/01 03:13:05;;;;;;;34.17;21.52;;;10.40;99.90;;;;;;5049823;28;20037;-69
2021/09/01 03:15:32;;;;;;;30.02;19.80;;;10.40;99.90;;;;;;5049200;28;20025;-69
2021/09/01 03:17:58;;;;;;;28.00;19.02;;;10.40;99.90;;;;;;5051061;28;20052;-69
2021/09/01 03:20:24;;;;;;;31.15;20.17;;;10.30;99.90;;;;;;5050601;28;20040;-69
2021/09/01 03:22:50;;;;;;;31.45;20.00;;;10.30;99.90;;;;;;5050673;28;20037;-69
2021/09/01 03:25:16;;;;;;;38.00;22.73;;;10.20;99.90;;;;;;5050406;28;20025;-69
2021/09/01 03:27:42;;;;;;;40.85;22.33;;;10.20;99.90;;;;;;5050991;28;20071;-69
2021/09/01 03:30:08;;;;;;;34.90;20.85;;;10.20;99.90;;;;;;5051431;28;20029;-70
2021/09/01 03:32:34;;;;;;;34.67;20.67;;;10.20;99.90;;;;;;5050454;28;20036;-69
2021/09/01 03:34:59;;;;;;;38.75;22.88;;;10.20;99.90;;;;;;5051032;28;20535;-69
2021/09/01 03:37:25;;;;;;;38.30;23.17;;;10.20;99.90;;;;;;5050588;28;20029;-69
2021/09/01 03:39:51;;;;;;;36.38;23.35;;;10.20;99.90;;;;;;5048375;28;20071;-69
2021/09/01 03:42:17;;;;;;;37.53;21.98;;;10.10;99.90;;;;;;5050592;28;20052;-69
2021/09/01 03:44:43;;;;;;;35.25;21.15;;;10.10;99.90;;;;;;5050794;28;20104;-69
2021/09/01 03:47:09;;;;;;;33.80;20.25;;;10.10;99.90;;;;;;5051061;28;20100;-69
2021/09/01 03:49:34;;;;;;;34.00;20.83;;;10.00;99.90;;;;;;5054817;28;20033;-69
2021/09/01 03:52:00;;;;;;;34.58;20.02;;;10.00;99.90;;;;;;5054938;28;20041;-69
2021/09/01 03:54:26;;;;;;;29.08;19.38;;;10.00;99.90;;;;;;5054010;28;20502;-69
2021/09/01 03:56:51;;;;;;;32.83;20.90;;;9.90;99.90;;;;;;5055052;28;20112;-69
2021/09/01 03:59:17;;;;;;;31.75;20.67;;;9.90;99.90;;;;;;5053949;28;20039;-69
2021/09/01 04:01:44;;;;;;;31.35;19.70;;;9.90;99.90;;;;;;5055262;28;20108;-70
2021/09/01 04:04:09;;;;;;;28.13;18.20;;;9.80;99.90;;;;;;5054122;28;20028;-69
2021/09/01 04:06:35;;;;;;;33.72;21.50;;;9.80;99.90;;;;;;5046101;28;20028;-69
2021/09/01 04:09:01;;;;;;;31.48;20.63;;;9.80;99.90;;;;;;5054459;28;20033;-69
2021/09/01 04:11:27;;;;;;;30.67;19.75;;;9.80;99.90;;;;;;5053520;28;20060;-69
2021/09/01 04:13:53;;;;;;;30.52;20.00;;;9.80;99.90;;;;;;5054087;28;20036;-70
2021/09/01 04:16:19;;;;;;;30.85;19.58;;;9.70;99.90;;;;;;5054232;28;20055;-71
2021/09/01 04:18:46;;;;;;;30.23;20.13;;;9.70;99.90;;;;;;5054660;28;20106;-69
2021/09/01 04:21:11;;;;;;;34.50;21.38;;;9.70;99.90;;;;;;5054140;28;20145;-67
2021/09/01 04:23:37;;;;;;;34.95;22.02;;;9.70;99.90;;;;;;5053929;28;20522;-70
2021/09/01 04:26:03;;;;;;;36.85;23.05;;;9.70;99.90;;;;;;5046208;28;20153;-68
2021/09/01 04:28:29;;;;;;;39.88;23.88;;;9.70;99.90;;;;;;5053814;28;20394;-68
2021/09/01 04:30:55;;;;;;;41.40;25.05;;;;;;;;;;5053732;28;20433;-68
2021/09/01 04:33:21;;;;;;;48.90;25.83;;;9.90;99.90;;;;;;5053518;28;20425;-70
2021/09/01 04:35:46;;;;;;;48.25;26.73;;;9.90;99.90;;;;;;5054080;28;20033;-68
2021/09/01 04:38:12;;;;;;;49.15;27.38;;;9.90;99.90;;;;;;5053887;28;20031;-67
2021/09/01 04:40:38;;;;;;;41.35;27.13;;;9.90;99.90;;;;;;5050428;28;20406;-67
2021/09/01 04:43:04;;;;;;;45.05;27.02;;;9.90;99.90;;;;;;5053139;28;20106;-68
2021/09/01 04:45:29;;;;;;;45.20;26.30;;;10.00;99.90;;;;;;5051871;28;20466;-69
2021/09/01 04:47:55;;;;;;;54.10;30.70;;;10.10;99.90;;;;;;5053043;28;20029;-69
2021/09/01 04:50:21;;;;;;;49.53;27.95;;;10.10;99.90;;;;;;5051450;28;20053;-69
2021/09/01 04:52:47;;;;;;;51.83;27.55;;;10.20;99.90;;;;;;5052876;28;20033;-69
2021/09/01 04:55:15;;;;;;;59.55;31.02;;;10.20;99.90;;;;;;5052183;28;20485;-68
2021/09/01 04:57:41;;;;;;;60.28;29.98;;;10.20;99.90;;;;;;5052684;28;20067;-68
2021/09/01 05:00:07;;;;;;;86.03;34.60;;;10.30;99.90;;;;;;5052352;28;20056;-68
2021/09/01 05:02:33;;;;;;;61.97;31.88;;;10.30;99.90;;;;;;5051765;28;20065;-69
2021/09/01 05:04:58;;;;;;;57.40;29.05;;;10.30;99.90;;;;;;5052300;28;20455;-69
2021/09/01 05:07:24;;;;;;;53.03;28.58;;;10.40;99.90;;;;;;5051918;28;20359;-68
2021/09/01 05:09:50;;;;;;;51.13;27.88;;;10.40;99.90;;;;;;5052021;28;20429;-69
2021/09/01 05:12:16;;;;;;;56.58;30.73;;;10.40;99.90;;;;;;5051692;28;20033;-69
2021/09/01 05:14:42;;;;;;;50.38;27.90;;;10.50;99.90;;;;;;5052405;28;20052;-69
2021/09/01 05:17:08;;;;;;;48.10;27.98;;;10.50;99.90;;;;;;5044650;28;20033;-69
2021/09/01 05:19:33;;;;;;;42.80;26.73;;;10.50;99.90;;;;;;5051623;28;20028;-69
2021/09/01 05:22:04;;;;;;;42.53;25.17;;;10.60;99.90;;;;;;5052306;28;20044;-69
2021/09/01 05:24:59;;;;;;;48.75;27.02;;;10.60;99.90;;;;;;5051669;28;20041;-69
2021/09/01 05:27:28;;;;;;;46.35;26.92;;;10.60;99.90;;;;;;5051778;28;20378;-69
2021/09/01 05:29:54;;;;;;;47.90;26.98;;;10.70;99.90;;;;;;5052019;28;20025;-69
2021/09/01 05:32:20;;;;;;;92.03;27.92;;;10.70;99.90;;;;;;5051396;28;20111;-69
2021/09/01 05:34:52;;;;;;;44.17;25.35;;;10.70;99.90;;;;;;5052095;28;20133;-68
2021/09/01 05:37:18;;;;;;;45.38;27.00;;;10.80;99.90;;;;;;5051217;28;20017;-69
2021/09/01 05:39:48;;;;;;;54.75;27.55;;;10.80;99.90;;;;;;5051773;28;20115;-69
2021/09/01 05:42:17;;;;;;;47.15;25.40;;;10.90;99.90;;;;;;5013007;28;1094954;-68
2021/09/01 05:44:43;;;;;;;47.08;24.88;;;10.90;99.90;;;;;;5052797;28;20068;-69
2021/09/01 05:47:10;;;;;;;40.50;22.95;;;11.00;99.90;;;;;;5051415;28;20394;-68
2021/09/01 05:49:37;;;;;;;31.73;21.30;;;11.00;99.90;;;;;;5051665;28;20029;-69
2021/09/01 05:52:04;;;;;;;32.90;21.30;;;11.00;99.90;;;;;;5052800;28;20067;-68
2021/09/01 05:54:30;;;;;;;33.50;22.02;;;11.10;99.90;;;;;;5052053;28;20041;-68
2021/09/01 05:57:07;;;;;;;32.88;22.17;;;11.10;99.90;;;;;;5052604;28;20035;-68
2021/09/01 06:00:01;;;;;;;34.00;21.33;;;11.20;99.90;;;;;;5052004;28;20029;-69
2021/09/01 06:02:41;;;;;;;29.67;20.00;;;11.30;99.90;;;;;;5052069;28;20060;-69
2021/09/01 06:05:10;;;;;;;33.22;19.98;;;11.30;99.90;;;;;;5052030;28;20437;-69
2021/09/01 06:07:43;;;;;;;25.88;18.63;;;11.40;99.90;;;;;;5051688;28;20037;-69
2021/09/01 06:10:09;;;;;;;25.85;17.73;;;11.50;99.90;;;;;;5051054;28;20083;-69
2021/09/01 06:12:41;;;;;;;26.02;19.05;;;11.50;99.90;;;;;;5049478;28;20651;-69
2021/09/01 06:15:07;;;;;;;26.95;19.23;;;11.60;99.90;;;;;;5052969;28;20434;-68
2021/09/01 06:17:33;;;;;;;75.40;21.00;;;11.70;99.90;;;;;;5051580;28;20037;-73
2021/09/01 06:19:58;;;;;;;27.17;19.05;;;11.80;99.90;;;;;;5049342;28;20029;-69
2021/09/01 06:22:24;;;;;;;26.50;20.08;;;11.90;99.90;;;;;;5050768;28;20039;-69
2021/09/01 06:24:50;;;;;;;26.85;19.83;;;11.90;99.90;;;;;;5051627;28;20083;-69
2021/09/01 06:27:15;;;;;;;28.98;20.83;;;12.00;99.90;;;;;;5051501;28;20021;-69
2021/09/01 06:29:41;;;;;;;29.80;19.75;;;12.10;99.90;;;;;;5049340;28;20121;-69
2021/09/01 06:32:07;;;;;;;26.10;19.13;;;12.10;99.90;;;;;;5052571;28;20029;-69
2021/09/01 06:34:32;;;;;;;52.53;21.77;;;12.20;99.90;;;;;;5050555;28;20378;-69
2021/09/01 06:37:00;;;;;;;26.92;19.83;;;12.30;99.90;;;;;;5048239;28;20037;-68
2021/09/01 06:39:26;;;;;;;26.13;18.98;;;12.40;99.90;;;;;;5037527;28;20025;-70
2021/09/01 06:41:51;;;;;;;29.95;20.02;;;12.50;99.90;;;;;;5050464;28;20109;-69
2021/09/01 06:44:17;;;;;;;29.10;19.23;;;12.60;99.90;;;;;;5049939;28;20604;-68
2021/09/01 06:46:43;;;;;;;31.98;20.85;;;12.70;99.90;;;;;;5050914;28;20033;-69
2021/09/01 06:49:08;;;;;;;30.35;21.13;;;12.80;99.90;;;;;;5051612;28;20021;-68
2021/09/01 06:51:34;;;;;;;27.42;18.70;;;12.90;99.90;;;;;;5050877;28;20195;-68
2021/09/01 06:53:59;;;;;;;30.73;20.20;;;12.90;99.90;;;;;;5051760;28;20033;-68
2021/09/01 06:56:25;;;;;;;32.22;21.63;;;13.10;99.90;;;;;;5050650;28;20056;-68
2021/09/01 06:58:51;;;;;;;32.38;19.35;;;13.30;99.90;;;;;;5051117;28;20056;-69
2021/09/01 07:01:16;;;;;;;30.65;20.85;;;13.40;99.90;;;;;;5051135;28;20025;-68
2021/09/01 07:03:43;;;;;;;29.33;20.38;;;13.60;99.90;;;;;;5049729;28;20040;-68
2021/09/01 07:06:09;;;;;;;29.25;20.73;;;13.70;99.90;;;;;;5051455;28;20045;-68
2021/09/01 07:08:34;;;;;;;27.52;19.70;;;13.80;99.90;;;;;;5049882;28;20118;-68
2021/09/01 07:11:00;;;;;;;29.58;20.98;;;13.80;99.90;;;;;;5050784;28;20039;-68
2021/09/01 07:13:25;;;;;;;28.80;21.33;;;13.80;99.90;;;;;;5049919;28;20043;-68
2021/09/01 07:15:51;;;;;;;26.90;20.17;;;13.80;99.90;;;;;;5051245;28;20033;-68
2021/09/01 07:18:17;;;;;;;28.52;19.98;;;13.80;99.90;;;;;;5050763;28;20504;-69
2021/09/01 07:20:43;;;;;;;25.00;18.65;;;13.80;99.90;;;;;;5050854;28;20041;-67
2021/09/01 07:23:09;;;;;;;27.40;19.10;;;13.80;99.90;;;;;;5050603;28;20189;-67
2021/09/01 07:25:36;;;;;;;27.55;21.13;;;13.90;99.90;;;;;;5049861;28;20028;-67
2021/09/01 07:28:04;;;;;;;28.27;19.63;;;14.00;99.90;;;;;;5050770;28;20086;-68
2021/09/01 07:30:31;;;;;;;22.15;17.48;;;14.00;99.90;;;;;;5050052;28;20037;-68
2021/09/01 07:32:56;;;;;;;27.48;19.60;;;14.10;99.90;;;;;;5051108;28;20025;-68
2021/09/01 07:35:22;;;;;;;23.42;17.00;;;14.20;99.90;;;;;;5048930;28;20025;-68
2021/09/01 07:37:51;;;;;;;20.02;15.40;;;14.30;99.90;;;;;;5048523;28;20028;-68
2021/09/01 07:40:19;;;;;;;21.23;16.55;;;14.30;99.90;;;;;;5050589;28;20379;-68
2021/09/01 07:42:45;;;;;;;20.77;17.10;;;14.30;99.90;;;;;;5050749;28;20045;-68
2021/09/01 07:45:12;;;;;;;20.55;15.45;;;14.40;99.90;;;;;;5051305;28;20082;-69
2021/09/01 07:47:48;;;;;;;18.98;15.18;;;14.30;99.90;;;;;;5050103;28;20036;-68
2021/09/01 07:50:14;;;;;;;24.33;15.68;;;14.40;99.90;;;;;;5051075;28;20057;-69
2021/09/01 07:52:40;;;;;;;23.42;17.35;;;14.40;99.90;;;;;;5050390;28;20068;-68
2021/09/01 07:55:06;;;;;;;23.20;17.10;;;14.50;99.90;;;;;;5043068;28;20082;-68
2021/09/01 07:57:32;;;;;;;25.95;18.48;;;14.60;99.90;;;;;;5050007;28;20037;-68
2021/09/01 07:59:57;;;;;;;23.92;17.50;;;14.60;99.90;;;;;;5050848;28;20033;-68
2021/09/01 08:02:23;;;;;;;23.77;17.23;;;14.60;99.90;;;;;;5050195;28;20390;-68
2021/09/01 08:04:49;;;;;;;23.88;17.92;;;14.70;99.90;;;;;;5051068;28;20059;-68
2021/09/01 08:07:14;;;;;;;25.25;16.27;;;14.90;99.90;;;;;;5050595;28;20524;-68
2021/09/01 08:09:40;;;;;;;23.08;17.33;;;14.90;99.90;;;;;;5049242;28;20045;-68
2021/09/01 08:12:06;;;;;;;26.88;17.45;;;15.00;99.90;;;;;;5050724;28;20033;-68
2021/09/01 08:14:31;;;;;;;24.50;17.30;;;15.00;99.90;;;;;;5049904;28;20040;-68
2021/09/01 08:16:57;;;;;;;22.10;15.82;;;15.00;99.90;;;;;;5050443;28;20087;-69
2021/09/01 08:19:23;;;;;;;30.33;19.23;;;15.00;99.90;;;;;;5049769;28;20040;-68
2021/09/01 08:21:48;;;;;;;23.75;17.50;;;15.10;99.90;;;;;;5050440;28;20072;-68
2021/09/01 08:24:14;;;;;;;22.55;16.60;;;15.20;99.90;;;;;;5050405;28;20026;-69
2021/09/01 08:26:40;;;;;;;26.42;17.50;;;15.10;99.90;;;;;;5049583;28;20044;-69
2021/09/01 08:29:06;;;;;;;22.27;17.13;;;15.10;99.90;;;;;;5050326;28;20493;-69
2021/09/01 08:31:32;;;;;;;21.33;15.63;;;15.20;99.90;;;;;;5049473;28;20036;-69
2021/09/01 08:33:57;;;;;;;22.50;16.88;;;15.20;99.90;;;;;;5051372;28;20113;-69
2021/09/01 08:36:23;;;;;;;29.70;18.48;;;15.30;99.90;;;;;;5053684;28;20044;-68
2021/09/01 08:38:49;;;;;;;28.65;17.17;;;15.50;99.90;;;;;;5053547;28;20036;-69
2021/09/01 08:41:16;;;;;;;20.13;14.43;;;15.60;99.90;;;;;;5053639;28;20068;-69
2021/09/01 08:43:42;;;;;;;24.48;15.15;;;15.60;99.90;;;;;;5052362;28;20041;-69
2021/09/01 08:46:08;;;;;;;21.00;14.90;;;15.70;99.90;;;;;;5053582;28;20036;-70
2021/09/01 08:48:39;;;;;;;17.95;13.77;;;15.70;99.90;;;;;;5052986;28;20025;-68
2021/09/01 08:51:05;;;;;;;16.75;13.82;;;15.70;99.90;;;;;;5046582;28;20513;-69
2021/09/01 08:53:31;;;;;;;16.33;13.27;;;15.80;99.90;;;;;;5052797;28;20037;-69
2021/09/01 08:55:56;;;;;;;18.13;13.57;;;15.90;99.90;;;;;;5053458;28;20438;-69
2021/09/01 08:58:22;;;;;;;19.35;14.98;;;16.00;99.90;;;;;;5052863;28;20455;-68
2021/09/01 09:00:48;;;;;;;18.33;13.65;;;16.10;99.90;;;;;;5053562;28;20033;-69
2021/09/01 09:03:13;;;;;;;19.77;14.63;;;16.10;99.90;;;;;;5052834;28;20535;-69
2021/09/01 09:05:42;;;;;;;20.35;15.45;;;16.30;99.90;;;;;;5052546;28;20025;-68
2021/09/01 09:08:11;;;;;;;21.27;16.02;;;16.40;99.90;;;;;;5052981;28;20101;-68
2021/09/01 09:10:40;;;;;;;19.83;14.07;;;16.50;99.90;;;;;;5051961;28;20027;-68
2021/09/01 09:13:08;;;;;;;23.73;16.52;;;16.50;99.90;;;;;;5053352;28;20059;-69
2021/09/01 09:15:34;;;;;;;18.48;13.90;;;16.60;99.90;;;;;;5051779;28;20359;-68
2021/09/01 09:18:02;;;;;;;17.38;13.90;;;16.70;99.90;;;;;;5053167;28;20029;-68
2021/09/01 09:20:30;;;;;;;22.92;14.32;;;16.80;99.90;;;;;;5052148;28;20208;-68
2021/09/01 09:22:57;;;;;;;20.83;13.75;;;16.90;99.90;;;;;;5052910;28;20059;-69
2021/09/01 09:25:30;;;;;;;23.60;14.93;;;17.00;99.90;;;;;;5051732;28;20411;-68
2021/09/01 09:28:07;;;;;;;20.85;15.32;;;17.10;99.90;;;;;;5053253;28;20025;-68
2021/09/01 09:30:37;;;;;;;22.55;14.70;;;17.20;99.90;;;;;;5052130;28;20120;-69
2021/09/01 09:33:07;;;;;;;;;;;17.30;99.90;;;;;;5053436;28;20025;-69
2021/09/01 09:35:48;;;;;;;;;;;17.40;99.90;;;;;;5052050;28;20362;-68
2021/09/01 09:38:16;;;;;;;18.83;12.88;;;17.40;99.90;;;;;;5045665;28;19915;-69
2021/09/01 09:40:42;;;;;;;19.67;14.02;;;17.40;99.90;;;;;;5052302;28;20045;-68
2021/09/01 09:43:18;;;;;;;21.13;14.50;;;17.50;99.90;;;;;;5052687;28;20104;-68
2021/09/01 09:45:46;;;;;;;16.77;13.05;;;17.60;99.90;;;;;;5050820;28;20024;-68
2021/09/01 09:48:12;;;;;;;16.63;10.57;;;17.60;99.90;;;;;;5052761;28;20021;-69
2021/09/01 09:50:46;;;;;;;20.08;12.38;;;17.80;99.90;;;;;;5052062;28;20028;-68
2021/09/01 09:53:11;;;;;;;17.35;11.23;;;18.00;99.90;;;;;;5052903;28;20040;-68
2021/09/01 09:55:38;;;;;;;21.48;12.40;;;18.20;99.90;;;;;;5051829;28;20025;-69
2021/09/01 09:58:05;;;;;;;17.80;12.00;;;18.40;99.90;;;;;;5052332;28;20033;-69
2021/09/01 10:00:31;;;;;;;20.77;14.07;;;18.50;99.90;;;;;;5051555;28;20470;-68
2021/09/01 10:02:57;;;;;;;17.02;10.55;;;18.70;99.90;;;;;;5051417;28;20387;-68
2021/09/01 10:05:27;;;;;;;13.45;10.50;;;18.80;99.90;;;;;;5051914;28;20049;-68
2021/09/01 10:07:57;;;;;;;17.45;11.40;;;18.90;99.90;;;;;;5052165;28;20025;-68
2021/09/01 10:10:23;;;;;;;20.90;11.43;;;19.00;99.90;;;;;;5051372;28;20069;-69
2021/09/01 10:12:48;;;;;;;12.93;10.23;;;19.10;99.90;;;;;;5051903;28;20033;-69
2021/09/01 10:15:38;;;;;;;13.60;10.35;;;19.20;99.90;;;;;;5051267;28;20458;-70
2021/09/01 10:18:06;;;;;;;33.13;14.00;;;19.40;99.90;;;;;;5051808;28;20063;-79
2021/09/01 10:20:33;;;;;;;15.60;9.77;;;19.60;99.90;;;;;;5050659;28;20037;-75
2021/09/01 10:23:00;;;;;;;12.07;8.45;;;19.70;99.90;;;;;;5051786;28;20493;-82
2021/09/01 10:25:52;;;;;;;7.90;6.70;;;19.80;99.90;;;;;;5043347;28;20094;-75
2021/09/01 10:28:23;;;;;;;8.02;6.25;;;20.00;99.20;;;;;;5047790;28;20114;-71
2021/09/01 10:31:11;;;;;;;9.48;7.25;;;20.00;98.60;;;;;;5051344;28;20060;-69
2021/09/01 10:33:43;;;;;;;7.45;5.40;;;20.30;97.70;;;;;;5049042;28;20120;-69
2021/09/01 10:36:24;;;;;;;6.50;5.30;;;20.50;96.70;;;;;;5049915;28;20036;-70
2021/09/01 10:38:50;;;;;;;9.10;6.20;;;20.60;94.40;;;;;;5051712;28;20032;-75
2021/09/01 10:41:31;;;;;;;6.63;5.75;;;20.90;91.60;;;;;;5051228;28;20045;-68
2021/09/01 10:44:07;;;;;;;7.53;6.10;;;21.00;90.80;;;;;;5045530;28;20474;-68
2021/09/01 10:46:54;;;;;;;7.65;5.40;;;21.10;91.10;;;;;;5050876;28;20073;-68
2021/09/01 10:49:25;;;;;;;15.48;7.53;;;21.30;91.40;;;;;;5046940;28;20033;-68
2021/09/01 10:51:55;;;;;;;8.20;5.75;;;21.60;90.60;;;;;;5051409;28;20056;-68
2021/09/01 10:54:34;;;;;;;24.73;7.68;;;21.70;85.60;;;;;;5050572;28;20139;-67
2021/09/01 10:57:02;;;;;;;8.75;5.60;;;21.70;87.90;;;;;;5050390;28;20032;-67
2021/09/01 10:59:39;;;;;;;7.65;5.53;;;21.80;81.20;;;;;;5050615;28;20485;-67
2021/09/01 11:02:13;;;;;;;8.57;5.22;;;21.60;80.30;;;;;;5051217;28;20351;-67
2021/09/01 11:04:53;;;;;;;8.90;5.13;;;21.60;81.70;;;;;;5050467;28;20371;-67
2021/09/01 11:07:21;;;;;;;8.65;4.70;;;21.80;82.00;;;;;;5051521;28;20491;-67
2021/09/01 11:09:54;;;;;;;5.85;4.82;;;21.80;80.30;;;;;;5050448;28;20064;-68
2021/09/01 11:12:21;;;;;;;8.57;4.82;;;22.00;79.60;;;;;;5051015;28;20041;-67
2021/09/01 11:14:50;;;;;;;8.15;5.53;;;22.10;80.90;;;;;;5050702;28;20035;-67
2021/09/01 11:17:22;;;;;;;6.68;5.35;;;22.10;78.80;;;;;;5051246;28;20036;-67
2021/09/01 11:19:52;;;;;;;6.40;5.15;;;22.30;80.20;;;;;;5050839;28;20482;-67
2021/09/01 11:22:24;;;;;;;6.85;5.03;;;22.50;77.10;;;;;;5051297;28;20032;-67
2021/09/01 11:25:00;;;;;;;5.22;4.60;;;22.60;77.20;;;;;;5051144;28;20033;-68
2021/09/01 11:27:27;;;;;;;6.65;4.63;;;22.80;76.40;;;;;;5050321;28;20435;-67
2021/09/01 11:30:04;;;;;;;9.70;5.28;;;23.00;77.60;;;;;;5050920;28;20135;-68
2021/09/01 11:32:31;;;;;;;5.47;4.88;;;23.40;76.00;;;;;;5050242;28;20044;-67
2021/09/01 11:35:01;;;;;;;7.43;4.80;;;23.80;72.80;;;;;;5051235;28;20025;-68
2021/09/01 11:37:26;;;;;;;6.03;4.95;;;24.20;81.80;;;;;;5050269;28;20025;-68
2021/09/01 11:39:52;;;;;;;6.18;4.70;;;24.40;70.20;;;;;;5050724;28;20033;-68
2021/09/01 11:42:18;;;;;;;7.47;5.05;;;24.80;71.40;;;;;;5050827;28;20057;-68
2021/09/01 11:44:55;;;;;;;8.88;4.78;;;25.00;68.70;;;;;;5050300;28;20024;-67
2021/09/01 11:47:20;;;;;;;5.43;4.05;;;24.90;64.30;;;;;;5050957;28;20060;-68
2021/09/01 11:49:48;;;;;;;6.25;4.80;;;24.70;65.80;;;;;;5049881;28;20082;-73
2021/09/01 11:52:14;;;;;;;24.58;8.05;;;24.20;63.10;;;;;;5050691;28;20033;-75
2021/09/01 11:54:40;;;;;;;13.23;5.78;;;23.50;63.60;;;;;;5050731;28;20402;-70
2021/09/01 11:57:08;;;;;;;17.38;6.90;;;22.90;65.80;;;;;;5050885;28;20021;-70
2021/09/01 11:59:35;;;;;;;16.75;6.68;;;22.60;66.90;;;;;;5049631;28;20025;-71
2021/09/01 12:02:03;;;;;;;16.33;7.00;;;22.50;67.80;;;;;;5050667;28;20130;-68
2021/09/01 12:04:29;;;;;;;10.90;5.35;;;22.40;67.10;;;;;;5049993;28;20021;-68
2021/09/01 12:06:57;;;;;;;5.35;4.85;;;22.50;67.80;;;;;;5050988;28;20360;-68
2021/09/01 12:09:25;;;;;;;6.15;5.35;;;22.70;69.90;;;;;;5052406;28;20035;-68
2021/09/01 12:11:53;;;;;;;5.70;4.88;;;23.00;68.60;;;;;;5053713;28;20544;-68
2021/09/01 12:14:23;;;;;;;6.10;4.80;;;23.30;70.10;;;;;;5054303;28;20029;-69
2021/09/01 12:16:53;;;;;;;7.78;4.72;;;23.70;70.10;;;;;;5053828;28;20071;-68
2021/09/01 12:19:20;;;;;;;6.90;4.53;;;23.90;67.20;;;;;;5054596;28;20045;-68
2021/09/01 12:21:50;;;;;;;5.75;4.80;;;23.90;66.90;;;;;;5053292;28;20108;-68
2021/09/01 12:24:23;;;;;;;7.13;4.72;;;23.90;66.90;;;;;;5047604;28;20056;-68
2021/09/01 12:27:08;;;;;;;5.65;4.55;;;23.90;67.90;;;;;;5053463;28;20087;-68
2021/09/01 12:29:49;;;;;;;7.15;4.57;;;24.20;67.50;;;;;;5052867;28;20094;-69
2021/09/01 12:32:20;;;;;;;4.55;4.10;;;24.40;63.40;;;;;;5053828;28;20036;-68
2021/09/01 12:34:53;;;;;;;4.90;4.10;;;24.30;61.80;;;;;;5053126;28;20033;-68